Urucara, Brazil
Current Conditions -  °F | °C
As of 1:00 PM on Sunday 21 Dec 2014 (Local Time) from SBMN Reporting Station
Scattered Clouds Scattered Clouds  
Wind Chill: 88°   Ceiling: Unl
Heat Index: 96°   Visibility: 6mi
Dew Point: 73°   Wind: 6mph
Humidity: 62%   Direction: 130°SE
Pressure: 29.83"   Gusts: NA
Location:  2.52°S, 57.75°W
Report Text: SBMN 211700Z 13005KT 9999 SCT025 FEW030TCU SCT100 31/23 Q1010
Loading
Personal Weather Stations






























Interactive Weather Map New forecast layout! Learn more

10-Day Weather Forecast

Advertisements
Track Severe Weather on mobile